Time;durP1;ratioP1;P1;durP2;ratioP2;P2;SDS_P1;SDS_P2;PMS_P1;PMS_P2;Temp;Humidity;BMP_temperature;BMP_pressure;BME280_temperature;BME280_humidity;BME280_pressure;Samples;Min_cycle;Max_cycle;Signal;HPM_P1;HPM_P2
2023/12/23 00:00:32;;;;;;;1.50;0.20;;;1.40;99.90;;;;;;5027690;28;20226;-77
2023/12/23 00:03:00;;;;;;;0.23;0.10;;;1.40;99.90;;;;;;5038342;28;20203;-77
2023/12/23 00:05:27;;;;;;;2.47;0.23;;;1.40;99.90;;;;;;5046901;28;20663;-79
2023/12/23 00:07:54;;;;;;;0.47;0.20;;;1.40;99.90;;;;;;5046988;28;20299;-80
2023/12/23 00:10:21;;;;;;;0.90;0.30;;;1.50;99.90;;;;;;5046922;28;20270;-80
2023/12/23 00:12:48;;;;;;;0.37;0.30;;;1.50;99.90;;;;;;5028903;28;20684;-80
2023/12/23 00:15:14;;;;;;;0.20;0.20;;;1.50;99.90;;;;;;5028122;28;20215;-80
2023/12/23 00:17:43;;;;;;;1.43;0.43;;;1.50;99.90;;;;;;5046966;28;20219;-77
2023/12/23 00:20:12;;;;;;;0.80;0.30;;;1.50;99.90;;;;;;5047185;28;20208;-78
2023/12/23 00:22:39;;;;;;;0.87;0.50;;;1.50;99.90;;;;;;5037740;28;20227;-78
2023/12/23 00:25:06;;;;;;;1.03;0.50;;;1.50;99.90;;;;;;5040339;28;20786;-77
2023/12/23 00:27:34;;;;;;;1.53;0.60;;;1.50;99.90;;;;;;5046902;28;20457;-78
2023/12/23 00:30:01;;;;;;;0.60;0.60;;;1.60;99.90;;;;;;5046875;28;20208;-78
2023/12/23 00:32:27;;;;;;;6.00;0.60;;;1.60;99.90;;;;;;5044913;28;20246;-77
2023/12/23 00:34:55;;;;;;;1.10;0.50;;;1.60;99.90;;;;;;5046190;28;20218;-79
2023/12/23 00:37:22;;;;;;;3.30;0.83;;;1.70;99.90;;;;;;5046818;28;20215;-78
2023/12/23 00:39:49;;;;;;;1.90;0.90;;;1.70;99.90;;;;;;5046892;28;20219;-76
2023/12/23 00:42:16;;;;;;;2.83;1.07;;;1.70;99.90;;;;;;5045641;28;20200;-76
2023/12/23 00:44:43;;;;;;;2.37;0.70;;;1.70;99.90;;;;;;5047049;28;20211;-77
2023/12/23 00:47:09;;;;;;;3.57;0.70;;;1.80;99.90;;;;;;5046696;28;20295;-76
2023/12/23 00:49:36;;;;;;;4.17;0.70;;;1.80;99.90;;;;;;5046728;28;20208;-77
2023/12/23 00:52:05;;;;;;;1.20;0.60;;;1.80;99.90;;;;;;5046652;28;20256;-77
2023/12/23 00:54:31;;;;;;;2.17;0.90;;;1.80;99.90;;;;;;5043257;28;20579;-76
2023/12/23 00:56:58;;;;;;;3.30;1.00;;;1.90;99.90;;;;;;5030495;28;20216;-78
2023/12/23 00:59:25;;;;;;;3.10;0.60;;;1.90;99.90;;;;;;5030332;28;20212;-77
2023/12/23 01:01:52;;;;;;;4.90;0.80;;;1.90;99.90;;;;;;5036852;28;20211;-81
2023/12/23 01:04:19;;;;;;;3.80;0.70;;;1.90;99.90;;;;;;5049861;28;20204;-80
2023/12/23 01:06:46;;;;;;;1.00;0.60;;;1.90;99.90;;;;;;5046809;28;20288;-80
2023/12/23 01:09:14;;;;;;;2.77;0.70;;;2.00;99.90;;;;;;5041808;28;20236;-81
2023/12/23 01:11:41;;;;;;;1.67;0.63;;;1.90;99.90;;;;;;5041196;28;20236;-78
2023/12/23 01:14:08;;;;;;;3.40;0.87;;;2.00;99.90;;;;;;5046040;28;20208;-77
2023/12/23 01:16:34;;;;;;;2.13;0.67;;;2.00;99.90;;;;;;5049793;28;20212;-80
2023/12/23 01:19:01;;;;;;;2.40;1.13;;;2.00;99.90;;;;;;5038136;28;20585;-77
2023/12/23 01:21:28;;;;;;;3.33;0.77;;;2.00;99.90;;;;;;5044430;28;20215;-76
2023/12/23 01:23:55;;;;;;;2.73;1.13;;;2.00;99.90;;;;;;5044873;28;20208;-76
2023/12/23 01:26:23;;;;;;;2.93;0.80;;;2.00;99.90;;;;;;5030114;28;20215;-76
2023/12/23 01:28:50;;;;;;;3.07;1.10;;;2.00;99.90;;;;;;5029830;28;20208;-79
2023/12/23 01:31:20;;;;;;;2.33;0.57;;;2.00;99.90;;;;;;5042694;28;20225;-80
2023/12/23 01:33:47;;;;;;;3.73;0.67;;;2.00;99.90;;;;;;5049554;28;20320;-79
2023/12/23 01:36:16;;;;;;;2.80;0.60;;;2.00;99.90;;;;;;5048496;28;20292;-80
2023/12/23 01:38:43;;;;;;;1.73;0.50;;;1.90;99.90;;;;;;5029745;28;20807;-79
2023/12/23 01:41:09;;;;;;;2.67;0.70;;;2.00;99.90;;;;;;5029443;28;20216;-79
2023/12/23 01:43:37;;;;;;;2.53;0.73;;;2.00;99.90;;;;;;5043214;28;20781;-79
2023/12/23 01:46:05;;;;;;;3.90;0.90;;;2.00;99.90;;;;;;5049191;28;20215;-79
2023/12/23 01:48:35;;;;;;;5.53;0.90;;;2.00;99.90;;;;;;5049166;28;20215;-77
2023/12/23 01:51:03;;;;;;;2.20;0.90;;;2.00;99.90;;;;;;5049255;28;20204;-77
2023/12/23 01:53:31;;;;;;;1.93;0.47;;;2.00;99.90;;;;;;5049505;28;20208;-76
2023/12/23 01:55:58;;;;;;;3.30;0.87;;;1.90;99.90;;;;;;5034172;28;20212;-76
2023/12/23 01:58:25;;;;;;;3.23;1.00;;;2.00;99.90;;;;;;5038541;28;20208;-77
2023/12/23 02:00:53;;;;;;;3.27;0.60;;;2.00;99.90;;;;;;5049341;28;20430;-76
2023/12/23 02:03:21;;;;;;;3.37;0.70;;;2.00;99.90;;;;;;5044013;28;20205;-77
2023/12/23 02:05:48;;;;;;;3.13;0.90;;;2.00;99.90;;;;;;5029494;28;20205;-76
2023/12/23 02:08:15;;;;;;;5.10;0.90;;;2.00;99.90;;;;;;5034104;28;20244;-78
2023/12/23 02:10:42;;;;;;;2.53;0.80;;;2.00;99.90;;;;;;5049017;28;20208;-80
2023/12/23 02:13:17;;;;;;;2.53;0.50;;;2.00;99.90;;;;;;5048164;28;20234;-80
2023/12/23 02:15:44;;;;;;;0.80;0.40;;;2.00;99.90;;;;;;5048919;28;20639;-82
2023/12/23 02:18:12;;;;;;;3.23;0.63;;;2.00;99.90;;;;;;5048692;28;20208;-80
2023/12/23 02:20:39;;;;;;;1.47;0.73;;;2.00;99.90;;;;;;5048684;28;20481;-80
2023/12/23 02:23:07;;;;;;;0.60;0.40;;;2.00;99.90;;;;;;5048609;28;20203;-80
2023/12/23 02:25:34;;;;;;;1.40;0.60;;;2.00;99.90;;;;;;5042670;28;20565;-80
2023/12/23 02:28:06;;;;;;;3.20;0.83;;;2.00;99.90;;;;;;5028824;28;20211;-80
2023/12/23 02:30:35;;;;;;;2.93;0.67;;;2.00;99.90;;;;;;5030044;28;20575;-79
2023/12/23 02:33:02;;;;;;;0.60;0.30;;;2.00;99.90;;;;;;5028403;28;20648;-79
2023/12/23 02:35:29;;;;;;;0.67;0.57;;;2.00;99.90;;;;;;5028479;28;20209;-79
2023/12/23 02:37:55;;;;;;;1.83;0.50;;;2.00;99.90;;;;;;5030745;28;20211;-80
2023/12/23 02:40:23;;;;;;;1.83;0.50;;;2.00;99.90;;;;;;5047945;28;20239;-79
2023/12/23 02:42:49;;;;;;;1.33;0.40;;;2.00;99.90;;;;;;5032417;28;20205;-79
2023/12/23 02:45:16;;;;;;;1.77;0.40;;;2.00;99.90;;;;;;5028449;28;20207;-79
2023/12/23 02:47:43;;;;;;;1.43;0.50;;;2.00;99.90;;;;;;5028379;28;20205;-78
2023/12/23 02:50:10;;;;;;;1.83;0.47;;;2.00;99.90;;;;;;5028360;28;20208;-78
2023/12/23 02:52:37;;;;;;;0.77;0.40;;;2.00;99.90;;;;;;5028273;28;20282;-78
2023/12/23 02:55:04;;;;;;;1.33;0.57;;;2.00;99.90;;;;;;5039985;28;20211;-79
2023/12/23 02:57:32;;;;;;;3.23;0.77;;;2.00;99.90;;;;;;5045169;28;20197;-79
2023/12/23 02:59:59;;;;;;;0.50;0.27;;;2.00;99.90;;;;;;5027983;28;20209;-79
2023/12/23 03:02:26;;;;;;;0.93;0.20;;;1.90;99.90;;;;;;5036807;28;20597;-79
2023/12/23 03:04:52;;;;;;;0.43;0.27;;;1.90;99.90;;;;;;5041392;28;20288;-79
2023/12/23 03:07:19;;;;;;;1.00;0.43;;;1.90;99.90;;;;;;5037650;28;20650;-79
2023/12/23 03:09:46;;;;;;;1.00;0.40;;;1.90;99.90;;;;;;5043636;28;20236;-78
2023/12/23 03:12:13;;;;;;;1.17;0.33;;;1.90;99.90;;;;;;5047429;28;20240;-79
2023/12/23 03:14:42;;;;;;;1.03;0.40;;;1.90;99.90;;;;;;5030141;28;20292;-77
2023/12/23 03:17:09;;;;;;;0.50;0.37;;;1.90;99.90;;;;;;5037738;28;20701;-78
2023/12/23 03:19:35;;;;;;;0.83;0.20;;;1.80;99.90;;;;;;5047643;28;20216;-78
2023/12/23 03:22:02;;;;;;;2.40;0.37;;;1.90;99.90;;;;;;5047423;28;20215;-78
2023/12/23 03:24:29;;;;;;;2.30;0.50;;;1.90;99.90;;;;;;5047695;28;20200;-78
2023/12/23 03:26:56;;;;;;;2.23;0.50;;;1.90;99.90;;;;;;5028699;28;20607;-79
2023/12/23 03:29:22;;;;;;;2.90;0.60;;;1.90;99.90;;;;;;5027477;28;20204;-78
2023/12/23 03:31:50;;;;;;;1.73;0.60;;;1.90;99.90;;;;;;5027506;28;20234;-78
2023/12/23 03:34:17;;;;;;;2.17;0.80;;;2.00;99.90;;;;;;5027572;28;20756;-78
2023/12/23 03:36:44;;;;;;;3.33;0.60;;;2.00;99.90;;;;;;5027979;28;20204;-77
2023/12/23 03:39:11;;;;;;;2.03;0.60;;;2.00;99.90;;;;;;5046719;28;20664;-80
2023/12/23 03:41:38;;;;;;;3.03;0.77;;;2.00;99.90;;;;;;5041215;28;20582;-79
2023/12/23 03:44:04;;;;;;;4.40;0.70;;;2.00;99.90;;;;;;5027042;28;20209;-79
2023/12/23 03:46:31;;;;;;;2.57;0.77;;;2.00;99.90;;;;;;5027493;28;20215;-79
2023/12/23 03:48:59;;;;;;;4.57;0.97;;;2.00;99.90;;;;;;5027878;28;20711;-78
2023/12/23 03:51:26;;;;;;;3.03;0.87;;;2.10;99.90;;;;;;5033923;28;20208;-78
2023/12/23 03:53:53;;;;;;;1.97;0.60;;;2.10;99.90;;;;;;5027243;28;20282;-78
2023/12/23 03:56:20;;;;;;;2.27;0.57;;;2.10;99.90;;;;;;5027201;28;20248;-78
2023/12/23 03:58:47;;;;;;;4.00;0.80;;;2.10;99.90;;;;;;5027054;28;20199;-78
2023/12/23 04:01:15;;;;;;;3.93;0.80;;;2.10;99.90;;;;;;5035066;28;20204;-77
2023/12/23 04:03:42;;;;;;;3.83;0.90;;;2.20;99.90;;;;;;5039780;28;20764;-78
2023/12/23 04:06:12;;;;;;;5.57;0.93;;;2.20;99.90;;;;;;5046876;28;20216;-78
2023/12/23 04:08:38;;;;;;;2.80;0.93;;;2.20;99.90;;;;;;5046800;28;20266;-78
2023/12/23 04:11:05;;;;;;;1.37;0.73;;;2.20;99.90;;;;;;5046973;28;20208;-78
2023/12/23 04:13:32;;;;;;;3.00;1.03;;;2.20;99.90;;;;;;5040829;28;20783;-78
2023/12/23 04:15:59;;;;;;;3.40;1.07;;;2.20;99.90;;;;;;5027086;28;20216;-78
2023/12/23 04:18:26;;;;;;;7.07;1.53;;;2.30;99.90;;;;;;5026774;28;20209;-78
2023/12/23 04:20:52;;;;;;;3.93;1.10;;;2.20;99.90;;;;;;5027184;28;20263;-77
2023/12/23 04:23:20;;;;;;;3.13;1.10;;;2.30;99.90;;;;;;5026907;28;20735;-78
2023/12/23 04:25:47;;;;;;;5.83;1.13;;;2.30;99.90;;;;;;5035670;28;20204;-78
2023/12/23 04:28:15;;;;;;;4.27;1.57;;;2.30;99.90;;;;;;5048943;28;20204;-77
2023/12/23 04:30:42;;;;;;;5.17;1.40;;;2.30;99.90;;;;;;5050688;28;20223;-78
2023/12/23 04:33:09;;;;;;;6.40;1.50;;;2.30;99.90;;;;;;5050563;28;20240;-78
2023/12/23 04:35:36;;;;;;;2.80;1.20;;;2.30;99.90;;;;;;5051019;28;20295;-77
2023/12/23 04:38:03;;;;;;;3.73;1.10;;;2.30;99.90;;;;;;5049978;28;20217;-78
2023/12/23 04:40:31;;;;;;;7.53;1.23;;;2.40;99.90;;;;;;5047177;28;20263;-78
2023/12/23 04:42:58;;;;;;;3.43;1.17;;;2.40;99.90;;;;;;5047278;28;20211;-77
2023/12/23 04:45:25;;;;;;;5.63;1.23;;;2.40;99.90;;;;;;5050939;28;20229;-78
2023/12/23 04:47:52;;;;;;;3.37;1.30;;;2.40;99.90;;;;;;5050949;28;20205;-78
2023/12/23 04:50:18;;;;;;;4.57;1.37;;;2.40;99.90;;;;;;5050136;28;20662;-77
2023/12/23 04:52:45;;;;;;;6.77;1.33;;;2.40;99.90;;;;;;5050423;28;20231;-78
2023/12/23 04:55:12;;;;;;;3.17;1.03;;;2.40;99.90;;;;;;5049881;28;20669;-78
2023/12/23 04:57:40;;;;;;;7.53;1.50;;;2.40;99.90;;;;;;5049158;28;20559;-78
2023/12/23 05:00:08;;;;;;;6.57;1.70;;;2.40;99.90;;;;;;5045097;28;20219;-78
2023/12/23 05:02:35;;;;;;;7.17;1.90;;;2.40;99.90;;;;;;5039033;28;20655;-76
2023/12/23 05:05:02;;;;;;;4.27;1.40;;;2.50;99.90;;;;;;5030219;28;20206;-75
2023/12/23 05:07:28;;;;;;;7.50;1.47;;;2.40;99.90;;;;;;5029936;28;20588;-75
2023/12/23 05:09:55;;;;;;;4.63;1.70;;;2.50;99.90;;;;;;5055133;28;20240;-79
2023/12/23 05:12:23;;;;;;;4.83;1.20;;;2.50;99.90;;;;;;5069586;28;20693;-78
2023/12/23 05:14:51;;;;;;;6.37;1.50;;;2.40;99.90;;;;;;5044724;28;20710;-79
2023/12/23 05:17:18;;;;;;;6.87;1.97;;;2.40;99.90;;;;;;5030014;28;20216;-79
2023/12/23 05:19:47;;;;;;;6.47;1.30;;;2.50;99.90;;;;;;5030024;28;20204;-79
2023/12/23 05:22:13;;;;;;;10.07;1.40;;;2.50;99.90;;;;;;5012015;28;20217;-80
2023/12/23 05:24:42;;;;;;;5.27;1.70;;;2.40;99.90;;;;;;5039455;28;20205;-78
2023/12/23 05:27:09;;;;;;;2.87;1.27;;;2.50;99.90;;;;;;5050032;28;20259;-79
2023/12/23 05:29:36;;;;;;;7.73;1.97;;;2.50;99.90;;;;;;5049588;28;20208;-79
2023/12/23 05:32:05;;;;;;;6.40;1.47;;;2.50;99.90;;;;;;5048931;28;20309;-76
2023/12/23 05:34:32;;;;;;;3.90;1.30;;;2.50;99.90;;;;;;5049530;28;20208;-76
2023/12/23 05:36:59;;;;;;;3.57;1.10;;;2.50;99.90;;;;;;5040818;28;20238;-76
2023/12/23 05:39:25;;;;;;;6.23;1.40;;;2.50;99.90;;;;;;5049206;28;20212;-76
2023/12/23 05:41:52;;;;;;;5.13;1.40;;;2.50;99.90;;;;;;5049163;28;20295;-76
2023/12/23 05:44:19;;;;;;;5.57;1.10;;;2.60;99.90;;;;;;5035095;28;20217;-76
2023/12/23 05:46:46;;;;;;;4.50;0.97;;;2.60;99.90;;;;;;5029214;28;20763;-76
2023/12/23 05:49:14;;;;;;;5.87;1.30;;;2.70;99.90;;;;;;5029428;28;20205;-76
2023/12/23 05:51:41;;;;;;;3.53;1.40;;;2.70;99.90;;;;;;5029321;28;20209;-76
2023/12/23 05:54:08;;;;;;;7.27;1.53;;;2.70;99.90;;;;;;5041784;28;20274;-76
2023/12/23 05:56:34;;;;;;;4.33;1.20;;;2.70;99.90;;;;;;5049057;28;20216;-76
2023/12/23 05:59:01;;;;;;;6.53;1.63;;;2.70;99.90;;;;;;5049282;28;20208;-75
2023/12/23 06:01:28;;;;;;;5.17;1.50;;;2.70;99.90;;;;;;5034530;28;20667;-76
2023/12/23 06:03:55;;;;;;;5.43;1.20;;;2.70;99.90;;;;;;5028637;28;20215;-76
2023/12/23 06:06:23;;;;;;;10.03;1.40;;;2.70;99.90;;;;;;5043262;28;20666;-75
2023/12/23 06:08:50;;;;;;;5.20;1.73;;;2.70;99.90;;;;;;5046212;28;20611;-75
2023/12/23 06:11:16;;;;;;;4.40;1.20;;;2.60;99.90;;;;;;5039012;28;20208;-75
2023/12/23 06:13:44;;;;;;;5.67;1.40;;;2.60;99.90;;;;;;5048887;28;20238;-75
2023/12/23 06:16:11;;;;;;;2.93;1.20;;;2.60;99.90;;;;;;5049009;28;20223;-75
2023/12/23 06:18:37;;;;;;;4.13;1.43;;;2.60;99.90;;;;;;5047678;28;20547;-75
2023/12/23 06:21:04;;;;;;;3.17;1.10;;;2.60;99.90;;;;;;5028565;28;20218;-75
2023/12/23 06:23:32;;;;;;;3.20;1.07;;;2.60;99.90;;;;;;5028497;28;20664;-75
2023/12/23 06:25:59;;;;;;;3.53;1.53;;;2.60;99.90;;;;;;5028497;28;20618;-75
2023/12/23 06:28:26;;;;;;;3.90;1.43;;;2.50;99.90;;;;;;5028359;28;20681;-75
2023/12/23 06:30:53;;;;;;;5.10;1.63;;;2.50;99.90;;;;;;5030652;28;20216;-75
2023/12/23 06:33:20;;;;;;;4.87;1.57;;;2.50;99.90;;;;;;5048102;28;20246;-75
2023/12/23 06:35:46;;;;;;;3.90;1.47;;;2.50;99.90;;;;;;5048052;28;20215;-75
2023/12/23 06:38:15;;;;;;;5.30;1.50;;;2.50;99.90;;;;;;5047967;28;20203;-75
2023/12/23 06:40:43;;;;;;;3.10;1.00;;;2.50;99.90;;;;;;5036102;28;20667;-75
2023/12/23 06:43:10;;;;;;;4.80;1.00;;;2.50;99.90;;;;;;5043415;28;20204;-80
2023/12/23 06:45:37;;;;;;;4.57;1.60;;;2.50;99.90;;;;;;5028858;28;20204;-79
2023/12/23 06:48:04;;;;;;;4.70;1.13;;;2.50;99.90;;;;;;5027749;28;20682;-79
2023/12/23 06:50:31;;;;;;;4.43;1.33;;;2.50;99.90;;;;;;5041618;28;20208;-78
2023/12/23 06:52:58;;;;;;;3.70;1.30;;;2.60;99.90;;;;;;5047513;28;20251;-78
2023/12/23 06:55:25;;;;;;;4.33;1.40;;;2.60;99.90;;;;;;5047404;28;20215;-78
2023/12/23 06:57:54;;;;;;;6.37;1.43;;;2.60;99.90;;;;;;5048088;28;20200;-77
2023/12/23 07:00:21;;;;;;;3.63;1.17;;;2.70;99.90;;;;;;5047900;28;20343;-77
2023/12/23 07:02:49;;;;;;;5.67;1.70;;;2.70;99.90;;;;;;5063774;28;20303;-76
2023/12/23 07:05:15;;;;;;;2.53;1.27;;;2.70;99.90;;;;;;5067518;28;20207;-77
2023/12/23 07:07:42;;;;;;;4.20;0.97;;;2.70;99.90;;;;;;5056966;28;20226;-76
2023/12/23 07:10:10;;;;;;;3.97;1.50;;;2.60;99.90;;;;;;5046271;28;20246;-76
2023/12/23 07:12:37;;;;;;;3.93;1.20;;;2.70;99.90;;;;;;5028010;28;20293;-76
2023/12/23 07:15:06;;;;;;;6.20;1.77;;;2.70;99.90;;;;;;5036994;28;20279;-80
2023/12/23 07:17:33;;;;;;;5.50;1.77;;;2.70;99.90;;;;;;5041491;28;20200;-80
2023/12/23 07:20:01;;;;;;;6.07;1.30;;;2.60;99.90;;;;;;5023214;28;20232;-79
2023/12/23 07:22:28;;;;;;;5.90;1.13;;;2.60;99.90;;;;;;5036659;28;20219;-78
2023/12/23 07:24:56;;;;;;;1.83;0.73;;;2.60;99.90;;;;;;5030360;28;20212;-78
2023/12/23 07:27:23;;;;;;;3.83;1.43;;;2.60;99.90;;;;;;5028095;28;20486;-78
2023/12/23 07:29:49;;;;;;;6.57;1.77;;;2.60;99.90;;;;;;5027907;28;20210;-78
2023/12/23 07:32:17;;;;;;;4.10;1.30;;;2.60;99.90;;;;;;5027701;28;20225;-78
2023/12/23 07:34:44;;;;;;;2.90;1.37;;;2.50;99.90;;;;;;5027099;28;20233;-78
2023/12/23 07:37:11;;;;;;;4.23;1.37;;;2.50;99.90;;;;;;5046570;28;20212;-76
2023/12/23 07:39:38;;;;;;;5.53;1.47;;;2.50;99.90;;;;;;5047376;28;20687;-77
2023/12/23 07:42:05;;;;;;;4.57;1.60;;;2.40;99.90;;;;;;5047024;28;20219;-77
2023/12/23 07:44:36;;;;;;;4.80;1.80;;;2.30;99.90;;;;;;5047447;28;20203;-77
2023/12/23 07:47:03;;;;;;;2.60;2.00;;;2.30;99.90;;;;;;5047172;28;20303;-81
2023/12/23 07:49:33;;;;;;;4.00;1.40;;;2.30;99.90;;;;;;5047170;28;20212;-78
2023/12/23 07:52:00;;;;;;;5.23;1.43;;;2.30;99.90;;;;;;5046380;28;20638;-77
2023/12/23 07:54:27;;;;;;;2.60;1.37;;;2.30;99.90;;;;;;5047403;28;20232;-78
2023/12/23 07:56:53;;;;;;;3.37;1.13;;;2.30;99.90;;;;;;5047667;28;20215;-78
2023/12/23 07:59:20;;;;;;;3.80;1.13;;;2.30;99.90;;;;;;5047473;28;20574;-77
2023/12/23 08:01:47;;;;;;;2.73;0.83;;;2.30;99.90;;;;;;5046397;28;20674;-77
2023/12/23 08:04:14;;;;;;;4.83;1.20;;;2.40;99.90;;;;;;5045012;28;20208;-78
2023/12/23 08:06:43;;;;;;;2.37;1.10;;;2.40;99.90;;;;;;5027146;28;20259;-76
2023/12/23 08:09:10;;;;;;;3.23;0.93;;;2.40;99.90;;;;;;5026938;28;20236;-77
2023/12/23 08:11:36;;;;;;;2.93;1.00;;;2.40;99.90;;;;;;5029237;28;20201;-78
2023/12/23 08:14:03;;;;;;;1.00;0.80;;;2.40;99.90;;;;;;5027512;28;20319;-78
2023/12/23 08:16:30;;;;;;;1.40;1.00;;;2.40;99.90;;;;;;5027695;28;20224;-82
2023/12/23 08:18:57;;;;;;;4.87;1.10;;;2.40;99.90;;;;;;5027396;28;20724;-82
2023/12/23 08:21:24;;;;;;;1.40;0.73;;;2.40;99.90;;;;;;5027637;28;20221;-77
2023/12/23 08:23:52;;;;;;;2.67;1.10;;;2.40;99.90;;;;;;5027075;28;20211;-76
2023/12/23 08:26:19;;;;;;;1.37;0.87;;;2.40;99.90;;;;;;5026993;28;20208;-76
2023/12/23 08:28:46;;;;;;;1.77;1.20;;;2.40;99.90;;;;;;5027030;28;20209;-76
2023/12/23 08:31:13;;;;;;;5.03;1.20;;;2.40;99.90;;;;;;5027881;28;20200;-78
2023/12/23 08:33:40;;;;;;;2.83;0.90;;;2.40;99.90;;;;;;5037901;28;20238;-78
2023/12/23 08:36:07;;;;;;;2.73;1.10;;;2.50;99.90;;;;;;5046960;28;20200;-78
2023/12/23 08:38:33;;;;;;;5.83;1.30;;;2.40;99.90;;;;;;5046838;28;20208;-78
2023/12/23 08:41:02;;;;;;;8.37;1.47;;;2.50;99.90;;;;;;5046300;28;20236;-78
2023/12/23 08:43:29;;;;;;;3.00;1.20;;;2.50;99.90;;;;;;5040254;28;20215;-72
2023/12/23 08:45:55;;;;;;;4.90;1.67;;;2.50;99.90;;;;;;5046548;28;20208;-78
2023/12/23 08:48:22;;;;;;;5.73;1.33;;;2.50;99.90;;;;;;5046920;28;20211;-78
2023/12/23 08:50:49;;;;;;;5.47;1.70;;;2.50;99.90;;;;;;5037710;28;20212;-78
2023/12/23 08:53:16;;;;;;;3.93;1.03;;;2.60;99.90;;;;;;5026940;28;20216;-77
2023/12/23 08:55:44;;;;;;;5.73;1.40;;;2.60;99.90;;;;;;5041998;28;20551;-77
2023/12/23 08:58:13;;;;;;;3.40;1.30;;;2.60;99.90;;;;;;5046724;28;20247;-77
2023/12/23 09:00:40;;;;;;;5.13;1.10;;;2.70;99.90;;;;;;5046522;28;20220;-78
2023/12/23 09:03:07;;;;;;;4.37;1.40;;;2.70;99.90;;;;;;5046502;28;20205;-78
2023/12/23 09:05:33;;;;;;;6.47;1.40;;;2.70;99.90;;;;;;5046661;28;20210;-78
2023/12/23 09:08:00;;;;;;;2.93;1.10;;;2.80;99.90;;;;;;5026532;28;20212;-77
2023/12/23 09:10:27;;;;;;;2.63;1.20;;;2.80;99.90;;;;;;5030375;28;20204;-78
2023/12/23 09:12:54;;;;;;;2.63;0.80;;;2.90;99.90;;;;;;5047064;28;20257;-78
2023/12/23 09:15:22;;;;;;;4.03;1.00;;;2.90;99.90;;;;;;5050089;28;20240;-77
2023/12/23 09:17:49;;;;;;;3.80;0.73;;;2.80;99.90;;;;;;5050153;28;20263;-77
2023/12/23 09:20:16;;;;;;;3.27;1.00;;;2.80;99.90;;;;;;5049763;28;20227;-78
2023/12/23 09:22:43;;;;;;;2.90;0.93;;;2.80;99.90;;;;;;5050206;28;20204;-78
2023/12/23 09:25:11;;;;;;;3.03;0.70;;;2.70;99.90;;;;;;5049976;28;20239;-78
2023/12/23 09:27:40;;;;;;;1.50;0.97;;;2.70;99.90;;;;;;5050317;28;20821;-77
2023/12/23 09:30:07;;;;;;;0.87;0.83;;;2.70;99.90;;;;;;5048798;28;20555;-78
2023/12/23 09:32:36;;;;;;;2.70;1.03;;;2.60;99.90;;;;;;5032582;28;20221;-78
2023/12/23 09:35:03;;;;;;;6.73;1.00;;;2.60;99.90;;;;;;5029599;28;21043;-78
2023/12/23 09:37:30;;;;;;;1.63;0.80;;;2.50;99.90;;;;;;5029767;28;20219;-78
2023/12/23 09:39:59;;;;;;;1.67;0.80;;;2.40;99.90;;;;;;5048577;28;20216;-78
2023/12/23 09:42:25;;;;;;;3.60;0.73;;;2.40;99.90;;;;;;5041183;28;20209;-78
2023/12/23 09:44:53;;;;;;;1.97;0.80;;;2.40;99.90;;;;;;5049982;28;20200;-78
2023/12/23 09:47:20;;;;;;;1.87;1.50;;;2.40;99.90;;;;;;5049653;28;20212;-78
2023/12/23 09:49:48;;;;;;;1.60;1.17;;;2.30;99.90;;;;;;5049252;28;20205;-78
2023/12/23 09:52:14;;;;;;;2.40;0.70;;;2.30;99.90;;;;;;5045162;28;20584;-78
2023/12/23 09:54:50;;;;;;;1.47;0.90;;;2.20;99.90;;;;;;5040577;28;20694;-79
2023/12/23 09:57:19;;;;;;;1.93;1.00;;;2.20;99.90;;;;;;5047765;28;20200;-78
2023/12/23 09:59:51;;;;;;;2.30;1.00;;;2.20;99.90;;;;;;5048135;28;20574;-78
2023/12/23 10:02:19;;;;;;;2.60;1.13;;;2.20;99.90;;;;;;5047924;28;20197;-78
2023/12/23 10:04:48;;;;;;;1.10;0.80;;;2.20;99.90;;;;;;5047348;28;20208;-79
2023/12/23 10:07:15;;;;;;;0.80;0.80;;;2.20;99.90;;;;;;5036132;28;20263;-78
2023/12/23 10:09:42;;;;;;;2.43;1.03;;;2.20;99.90;;;;;;5027408;28;20318;-79
2023/12/23 10:12:09;;;;;;;1.10;1.00;;;2.10;99.90;;;;;;5044947;28;20299;-77
2023/12/23 10:14:37;;;;;;;1.50;1.20;;;2.10;99.90;;;;;;5047876;28;20231;-79
2023/12/23 10:17:04;;;;;;;2.37;0.73;;;2.00;99.90;;;;;;5047345;28;20270;-78
2023/12/23 10:19:32;;;;;;;1.03;0.80;;;2.00;99.90;;;;;;5047000;28;20208;-79
2023/12/23 10:22:02;;;;;;;1.47;0.80;;;2.00;99.90;;;;;;5047239;28;20207;-79
2023/12/23 10:24:28;;;;;;;0.53;0.53;;;1.90;99.90;;;;;;5042670;28;20205;-75
2023/12/23 10:26:57;;;;;;;0.77;0.63;;;1.90;99.90;;;;;;5026757;28;20213;-74
2023/12/23 10:29:27;;;;;;;1.27;0.83;;;1.90;99.90;;;;;;5027750;28;20216;-74
2023/12/23 10:32:03;;;;;;;2.10;1.30;;;1.90;99.90;;;;;;5027232;28;20225;-74
2023/12/23 10:34:37;;;;;;;1.07;0.97;;;2.00;99.90;;;;;;5041038;28;20228;-74
2023/12/23 10:37:06;;;;;;;1.63;0.60;;;2.00;99.90;;;;;;5045257;28;20203;-75
2023/12/23 10:39:39;;;;;;;0.73;0.70;;;2.00;99.90;;;;;;5040651;28;20218;-74
2023/12/23 10:42:09;;;;;;;2.17;0.87;;;2.00;99.90;;;;;;5037951;28;20197;-73
2023/12/23 10:44:37;;;;;;;1.33;0.90;;;2.00;99.90;;;;;;5043128;28;20560;-74
2023/12/23 10:47:07;;;;;;;2.03;0.93;;;2.00;99.90;;;;;;5046617;28;20200;-73
2023/12/23 10:49:35;;;;;;;1.97;1.10;;;2.00;99.90;;;;;;5046708;28;20208;-73
2023/12/23 10:52:02;;;;;;;2.90;0.87;;;2.00;99.90;;;;;;5045867;28;20303;-73
2023/12/23 10:54:31;;;;;;;1.10;1.00;;;2.00;99.90;;;;;;5036050;28;20232;-73
2023/12/23 10:57:00;;;;;;;2.17;1.13;;;2.00;99.90;;;;;;5035634;28;20211;-73
2023/12/23 10:59:27;;;;;;;1.70;1.17;;;2.00;99.90;;;;;;5044662;28;20210;-73
2023/12/23 11:01:56;;;;;;;1.77;1.20;;;2.00;99.90;;;;;;5041403;28;20303;-73
2023/12/23 11:04:26;;;;;;;2.40;1.10;;;2.00;99.90;;;;;;5045526;28;20261;-74
2023/12/23 11:06:55;;;;;;;1.10;1.10;;;2.10;99.90;;;;;;5036862;28;20231;-74
2023/12/23 11:09:24;;;;;;;2.03;1.13;;;2.10;99.90;;;;;;5042126;28;20244;-74
2023/12/23 11:11:53;;;;;;;2.37;1.70;;;2.20;99.90;;;;;;5042488;28;20684;-74
2023/12/23 11:14:22;;;;;;;2.37;1.30;;;2.20;99.90;;;;;;5045363;28;20228;-73
2023/12/23 11:16:56;;;;;;;2.43;1.60;;;2.20;99.90;;;;;;5045462;28;20763;-74
2023/12/23 11:19:26;;;;;;;1.80;1.30;;;2.20;99.90;;;;;;5045538;28;20203;-73
2023/12/23 11:22:20;;;;;;;1.23;1.00;;;2.20;99.90;;;;;;5045265;28;20204;-73
2023/12/23 11:24:48;;;;;;;2.10;1.40;;;2.20;99.90;;;;;;5045723;28;20250;-73
2023/12/23 11:27:35;;;;;;;1.40;1.30;;;2.20;99.90;;;;;;5045283;28;20212;-73
2023/12/23 11:30:06;;;;;;;1.93;1.30;;;2.10;99.90;;;;;;5045749;28;20200;-73
2023/12/23 11:32:35;;;;;;;1.63;1.07;;;2.20;99.90;;;;;;5038209;28;20228;-73
2023/12/23 11:35:03;;;;;;;2.97;1.20;;;2.20;99.90;;;;;;5045111;28;20243;-73
2023/12/23 11:37:47;;;;;;;4.40;1.10;;;2.30;99.90;;;;;;5045213;28;20675;-73
2023/12/23 11:40:18;;;;;;;1.97;1.00;;;2.30;99.90;;;;;;5041735;28;20200;-73
2023/12/23 11:42:49;;;;;;;1.93;1.23;;;2.20;99.90;;;;;;5043855;28;20685;-73
2023/12/23 11:45:17;;;;;;;1.93;1.40;;;2.30;99.90;;;;;;5045226;28;20212;-73
2023/12/23 11:47:46;;;;;;;0.83;0.83;;;2.30;99.90;;;;;;5045670;28;20663;-73
2023/12/23 11:50:12;;;;;;;1.00;1.00;;;2.20;99.90;;;;;;5044801;28;20987;-73
2023/12/23 11:52:45;;;;;;;2.10;1.30;;;2.20;99.90;;;;;;5027876;28;20240;-73
2023/12/23 11:55:12;;;;;;;1.47;1.13;;;2.20;99.90;;;;;;5031991;28;20227;-74
2023/12/23 11:57:39;;;;;;;1.20;1.10;;;2.30;99.90;;;;;;5044857;28;20204;-73
2023/12/23 12:00:10;;;;;;;2.60;1.20;;;2.40;99.90;;;;;;5044725;28;20211;-74
2023/12/23 12:02:37;;;;;;;1.60;1.10;;;2.40;99.90;;;;;;5044356;28;20675;-74
2023/12/23 12:05:04;;;;;;;2.97;1.30;;;2.50;99.90;;;;;;5045349;28;20253;-74
2023/12/23 12:07:34;;;;;;;1.40;1.30;;;2.50;99.90;;;;;;5044036;28;20200;-73
2023/12/23 12:10:03;;;;;;;1.67;1.33;;;2.50;99.90;;;;;;5044619;28;20713;-73
2023/12/23 12:12:30;;;;;;;1.77;1.60;;;2.40;99.90;;;;;;5025358;28;20205;-73
2023/12/23 12:14:57;;;;;;;1.77;1.57;;;2.30;99.90;;;;;;5024959;28;20232;-73
2023/12/23 12:17:27;;;;;;;2.07;1.30;;;2.40;99.90;;;;;;5035523;28;20200;-73
2023/12/23 12:19:55;;;;;;;1.13;0.90;;;2.30;99.90;;;;;;5033208;28;20236;-73
2023/12/23 12:22:22;;;;;;;1.13;1.10;;;2.40;99.90;;;;;;5024887;28;20225;-73
2023/12/23 12:24:49;;;;;;;1.17;1.07;;;2.30;99.90;;;;;;5025540;28;20240;-73
2023/12/23 12:27:16;;;;;;;1.00;1.00;;;2.30;99.90;;;;;;5041867;28;20203;-73
2023/12/23 12:29:45;;;;;;;1.20;1.10;;;2.30;99.90;;;;;;5045408;28;20227;-73
2023/12/23 12:32:13;;;;;;;1.50;0.90;;;2.30;99.90;;;;;;5043774;28;20232;-73
2023/12/23 12:34:43;;;;;;;1.40;1.30;;;2.30;99.90;;;;;;5044496;28;20752;-73
2023/12/23 12:37:10;;;;;;;1.73;1.63;;;2.40;99.90;;;;;;5024802;28;20217;-73
2023/12/23 12:39:36;;;;;;;1.30;1.10;;;2.40;99.90;;;;;;5034871;28;20301;-73
2023/12/23 12:42:07;;;;;;;1.67;1.27;;;2.30;99.90;;;;;;5036812;28;20222;-73
2023/12/23 12:44:34;;;;;;;1.77;1.30;;;2.30;99.90;;;;;;5042527;28;20200;-73
2023/12/23 12:47:01;;;;;;;1.33;1.23;;;2.30;99.90;;;;;;5044809;28;20272;-73
2023/12/23 12:49:28;;;;;;;1.53;1.43;;;2.30;99.90;;;;;;5046658;28;20257;-73
2023/12/23 12:51:56;;;;;;;1.60;1.13;;;2.30;99.90;;;;;;5048741;28;20214;-73
2023/12/23 12:54:25;;;;;;;2.40;0.90;;;2.30;99.90;;;;;;5040149;28;20222;-73
2023/12/23 12:56:52;;;;;;;1.93;0.93;;;2.20;99.90;;;;;;5049745;28;20214;-73
2023/12/23 12:59:19;;;;;;;0.90;0.73;;;2.20;99.90;;;;;;5030104;28;20209;-73